Terminal Aerodrome Forecast
Issued by NWS

Home | Current Version | Previous Version | Text Only | Print | Product List | Glossary On
Versions: 1 2 3 4 5 6 7 8 9 10 11 12 13
000
FTUS43 KDTX 170804 AAA
TAFDET
TAF AMD
KDET 170804Z 1708/1806 10005KT P6SM SCT070 BKN120
     FM171000 14008KT 6SM -SHRA SCT035 BKN050 OVC070
      TEMPO 1711/1715 2SM +TSRA BKN018 OVC035CB
     FM171500 18011KT 5SM -SHRA BR BKN016 OVC040
     FM171900 20013G20KT P6SM BKN030 PROB30 1721/1724 2SM +TSRA
      BKN020 OVC030CB
     FM180100 21012KT P6SM SCT030 BKN050=

USA.gov is the U.S. government's official web portal to all federal, state and local government web resources and services.